sensor_id;sensor_type;location;lat;lon;timestamp;temperature;humidity
6538;DHT22;3302;52.508;13.454;2023-08-07T00:01:07;15.00;99.90
6538;DHT22;3302;52.508;13.454;2023-08-07T00:03:33;14.90;99.90
6538;DHT22;3302;52.508;13.454;2023-08-07T00:05:58;14.90;99.90
6538;DHT22;3302;52.508;13.454;2023-08-07T00:08:24;15.00;99.90
6538;DHT22;3302;52.508;13.454;2023-08-07T00:10:50;14.90;99.90
6538;DHT22;3302;52.508;13.454;2023-08-07T00:13:16;14.90;99.90
6538;DHT22;3302;52.508;13.454;2023-08-07T00:15:42;15.00;99.90
6538;DHT22;3302;52.508;13.454;2023-08-07T00:18:07;15.00;99.90
6538;DHT22;3302;52.508;13.454;2023-08-07T00:20:33;15.00;99.90
6538;DHT22;3302;52.508;13.454;2023-08-07T00:22:59;14.90;99.90
6538;DHT22;3302;52.508;13.454;2023-08-07T00:25:25;14.90;99.90
6538;DHT22;3302;52.508;13.454;2023-08-07T00:27:51;14.90;99.90
6538;DHT22;3302;52.508;13.454;2023-08-07T00:30:17;14.90;99.90
6538;DHT22;3302;52.508;13.454;2023-08-07T00:32:42;14.90;99.90
6538;DHT22;3302;52.508;13.454;2023-08-07T00:35:08;14.90;99.90
6538;DHT22;3302;52.508;13.454;2023-08-07T00:37:34;14.90;99.90
6538;DHT22;3302;52.508;13.454;2023-08-07T00:40:00;14.90;99.90
6538;DHT22;3302;52.508;13.454;2023-08-07T00:42:26;15.00;99.90
6538;DHT22;3302;52.508;13.454;2023-08-07T00:44:52;15.00;99.90
6538;DHT22;3302;52.508;13.454;2023-08-07T00:47:17;14.90;99.90
6538;DHT22;3302;52.508;13.454;2023-08-07T00:49:43;14.90;99.90
6538;DHT22;3302;52.508;13.454;2023-08-07T00:52:10;14.90;99.90
6538;DHT22;3302;52.508;13.454;2023-08-07T00:54:37;14.90;99.90
6538;DHT22;3302;52.508;13.454;2023-08-07T00:57:10;14.90;99.90
6538;DHT22;3302;52.508;13.454;2023-08-07T00:59:38;15.00;99.90
6538;DHT22;3302;52.508;13.454;2023-08-07T01:02:04;15.00;99.90
6538;DHT22;3302;52.508;13.454;2023-08-07T01:04:31;15.00;99.90
6538;DHT22;3302;52.508;13.454;2023-08-07T01:06:56;15.00;99.90
6538;DHT22;3302;52.508;13.454;2023-08-07T01:09:22;15.00;99.90
6538;DHT22;3302;52.508;13.454;2023-08-07T01:11:53;15.00;99.90
6538;DHT22;3302;52.508;13.454;2023-08-07T01:14:44;15.00;99.90
6538;DHT22;3302;52.508;13.454;2023-08-07T01:17:15;14.90;99.90
6538;DHT22;3302;52.508;13.454;2023-08-07T01:19:42;14.90;99.90
6538;DHT22;3302;52.508;13.454;2023-08-07T01:22:12;14.90;99.90
6538;DHT22;3302;52.508;13.454;2023-08-07T01:24:40;14.90;99.90
6538;DHT22;3302;52.508;13.454;2023-08-07T01:32:13;15.00;99.90
6538;DHT22;3302;52.508;13.454;2023-08-07T01:34:42;15.00;99.90
6538;DHT22;3302;52.508;13.454;2023-08-07T01:37:10;15.00;99.90
6538;DHT22;3302;52.508;13.454;2023-08-07T01:39:37;14.90;99.90
6538;DHT22;3302;52.508;13.454;2023-08-07T01:42:04;14.90;99.90
6538;DHT22;3302;52.508;13.454;2023-08-07T01:44:31;14.90;99.90
6538;DHT22;3302;52.508;13.454;2023-08-07T01:46:56;14.90;99.90
6538;DHT22;3302;52.508;13.454;2023-08-07T01:49:22;14.90;99.90
6538;DHT22;3302;52.508;13.454;2023-08-07T01:51:48;14.90;99.90
6538;DHT22;3302;52.508;13.454;2023-08-07T01:54:14;14.90;99.90
6538;DHT22;3302;52.508;13.454;2023-08-07T01:56:40;14.80;99.90
6538;DHT22;3302;52.508;13.454;2023-08-07T01:59:06;14.80;99.90
6538;DHT22;3302;52.508;13.454;2023-08-07T02:01:32;14.80;99.90
6538;DHT22;3302;52.508;13.454;2023-08-07T02:03:58;14.80;99.90
6538;DHT22;3302;52.508;13.454;2023-08-07T02:06:24;14.80;99.90
6538;DHT22;3302;52.508;13.454;2023-08-07T02:08:49;14.70;99.90
6538;DHT22;3302;52.508;13.454;2023-08-07T02:11:15;14.70;99.90
6538;DHT22;3302;52.508;13.454;2023-08-07T02:13:41;14.60;99.90
6538;DHT22;3302;52.508;13.454;2023-08-07T02:16:07;14.60;99.90
6538;DHT22;3302;52.508;13.454;2023-08-07T02:18:32;14.60;99.90
6538;DHT22;3302;52.508;13.454;2023-08-07T02:20:58;14.60;99.90
6538;DHT22;3302;52.508;13.454;2023-08-07T02:23:24;14.60;99.90
6538;DHT22;3302;52.508;13.454;2023-08-07T02:25:51;14.70;99.90
6538;DHT22;3302;52.508;13.454;2023-08-07T02:28:17;14.70;99.90
6538;DHT22;3302;52.508;13.454;2023-08-07T02:30:45;14.70;99.90
6538;DHT22;3302;52.508;13.454;2023-08-07T02:33:14;14.70;99.90
6538;DHT22;3302;52.508;13.454;2023-08-07T02:35:40;14.70;99.90
6538;DHT22;3302;52.508;13.454;2023-08-07T02:38:06;14.70;99.90
6538;DHT22;3302;52.508;13.454;2023-08-07T02:40:31;14.80;99.90
6538;DHT22;3302;52.508;13.454;2023-08-07T02:42:57;14.70;99.90
6538;DHT22;3302;52.508;13.454;2023-08-07T02:45:23;14.80;99.90
6538;DHT22;3302;52.508;13.454;2023-08-07T02:47:49;14.70;99.90
6538;DHT22;3302;52.508;13.454;2023-08-07T02:50:15;14.80;99.90
6538;DHT22;3302;52.508;13.454;2023-08-07T02:52:41;14.80;99.90
6538;DHT22;3302;52.508;13.454;2023-08-07T02:55:07;14.80;99.90
6538;DHT22;3302;52.508;13.454;2023-08-07T02:57:33;14.80;99.90
6538;DHT22;3302;52.508;13.454;2023-08-07T02:59:58;14.90;99.90
6538;DHT22;3302;52.508;13.454;2023-08-07T03:02:24;14.80;99.90
6538;DHT22;3302;52.508;13.454;2023-08-07T03:04:50;14.90;99.90
6538;DHT22;3302;52.508;13.454;2023-08-07T03:07:16;14.90;99.90
6538;DHT22;3302;52.508;13.454;2023-08-07T03:09:45;14.90;99.90
6538;DHT22;3302;52.508;13.454;2023-08-07T03:12:11;14.90;99.90
6538;DHT22;3302;52.508;13.454;2023-08-07T03:14:37;14.90;99.90
6538;DHT22;3302;52.508;13.454;2023-08-07T03:17:03;14.90;99.90
6538;DHT22;3302;52.508;13.454;2023-08-07T03:19:29;14.90;99.90
6538;DHT22;3302;52.508;13.454;2023-08-07T03:21:55;14.90;99.90
6538;DHT22;3302;52.508;13.454;2023-08-07T03:24:21;14.90;99.90
6538;DHT22;3302;52.508;13.454;2023-08-07T03:26:47;14.90;99.90
6538;DHT22;3302;52.508;13.454;2023-08-07T03:29:14;14.90;99.90
6538;DHT22;3302;52.508;13.454;2023-08-07T03:31:40;14.90;99.90
6538;DHT22;3302;52.508;13.454;2023-08-07T03:34:06;14.90;99.90
6538;DHT22;3302;52.508;13.454;2023-08-07T03:36:32;14.90;99.90
6538;DHT22;3302;52.508;13.454;2023-08-07T03:38:57;14.90;99.90
6538;DHT22;3302;52.508;13.454;2023-08-07T03:41:23;14.90;99.90
6538;DHT22;3302;52.508;13.454;2023-08-07T03:43:49;14.90;99.90
6538;DHT22;3302;52.508;13.454;2023-08-07T03:46:15;14.90;99.90
6538;DHT22;3302;52.508;13.454;2023-08-07T03:48:41;14.90;99.90
6538;DHT22;3302;52.508;13.454;2023-08-07T03:51:07;14.90;99.90
6538;DHT22;3302;52.508;13.454;2023-08-07T03:53:37;14.90;99.90
6538;DHT22;3302;52.508;13.454;2023-08-07T03:56:03;15.00;99.90
6538;DHT22;3302;52.508;13.454;2023-08-07T03:58:29;14.90;99.90
6538;DHT22;3302;52.508;13.454;2023-08-07T04:00:55;14.90;99.90
6538;DHT22;3302;52.508;13.454;2023-08-07T04:03:22;15.00;99.90
6538;DHT22;3302;52.508;13.454;2023-08-07T04:05:52;14.90;99.90
6538;DHT22;3302;52.508;13.454;2023-08-07T04:08:18;14.90;99.90
6538;DHT22;3302;52.508;13.454;2023-08-07T04:10:44;14.90;99.90
6538;DHT22;3302;52.508;13.454;2023-08-07T04:13:09;14.90;99.90
6538;DHT22;3302;52.508;13.454;2023-08-07T04:15:35;14.90;99.90
6538;DHT22;3302;52.508;13.454;2023-08-07T04:18:01;14.90;99.90
6538;DHT22;3302;52.508;13.454;2023-08-07T04:20:27;15.00;99.90
6538;DHT22;3302;52.508;13.454;2023-08-07T04:22:53;14.90;99.90
6538;DHT22;3302;52.508;13.454;2023-08-07T04:25:18;14.90;99.90
6538;DHT22;3302;52.508;13.454;2023-08-07T04:27:44;14.90;99.90
6538;DHT22;3302;52.508;13.454;2023-08-07T04:30:10;15.00;99.90
6538;DHT22;3302;52.508;13.454;2023-08-07T04:32:36;15.00;99.90
6538;DHT22;3302;52.508;13.454;2023-08-07T04:35:02;15.00;99.90
6538;DHT22;3302;52.508;13.454;2023-08-07T04:37:28;15.00;99.90
6538;DHT22;3302;52.508;13.454;2023-08-07T04:39:55;15.00;99.90
6538;DHT22;3302;52.508;13.454;2023-08-07T04:42:22;15.00;99.90
6538;DHT22;3302;52.508;13.454;2023-08-07T04:44:48;15.00;99.90
6538;DHT22;3302;52.508;13.454;2023-08-07T04:47:14;15.00;99.90
6538;DHT22;3302;52.508;13.454;2023-08-07T04:49:39;15.10;99.90
6538;DHT22;3302;52.508;13.454;2023-08-07T04:52:05;15.00;99.90
6538;DHT22;3302;52.508;13.454;2023-08-07T04:54:31;15.00;99.90
6538;DHT22;3302;52.508;13.454;2023-08-07T04:56:57;15.00;99.90
6538;DHT22;3302;52.508;13.454;2023-08-07T04:59:23;15.00;99.90
6538;DHT22;3302;52.508;13.454;2023-08-07T05:01:49;15.10;99.90
6538;DHT22;3302;52.508;13.454;2023-08-07T05:04:16;15.10;99.90
6538;DHT22;3302;52.508;13.454;2023-08-07T05:06:41;15.20;99.90
6538;DHT22;3302;52.508;13.454;2023-08-07T05:09:07;15.10;99.90
6538;DHT22;3302;52.508;13.454;2023-08-07T05:11:33;15.10;99.90
6538;DHT22;3302;52.508;13.454;2023-08-07T05:13:59;15.10;99.90
6538;DHT22;3302;52.508;13.454;2023-08-07T05:16:25;15.10;99.90
6538;DHT22;3302;52.508;13.454;2023-08-07T05:18:50;15.10;99.90
6538;DHT22;3302;52.508;13.454;2023-08-07T05:21:17;15.10;99.90
6538;DHT22;3302;52.508;13.454;2023-08-07T05:23:42;15.10;99.90
6538;DHT22;3302;52.508;13.454;2023-08-07T05:26:08;15.10;99.90
6538;DHT22;3302;52.508;13.454;2023-08-07T05:28:34;15.00;99.90
6538;DHT22;3302;52.508;13.454;2023-08-07T05:31:00;15.10;99.90
6538;DHT22;3302;52.508;13.454;2023-08-07T05:33:25;15.10;99.90
6538;DHT22;3302;52.508;13.454;2023-08-07T05:35:51;15.00;99.90
6538;DHT22;3302;52.508;13.454;2023-08-07T05:38:18;15.00;99.90
6538;DHT22;3302;52.508;13.454;2023-08-07T05:40:44;15.10;99.90
6538;DHT22;3302;52.508;13.454;2023-08-07T05:43:09;15.10;99.90
6538;DHT22;3302;52.508;13.454;2023-08-07T05:45:36;15.00;99.90
6538;DHT22;3302;52.508;13.454;2023-08-07T05:48:02;15.10;99.90
6538;DHT22;3302;52.508;13.454;2023-08-07T05:50:28;15.00;99.90
6538;DHT22;3302;52.508;13.454;2023-08-07T05:52:54;15.10;99.90
6538;DHT22;3302;52.508;13.454;2023-08-07T05:55:20;15.10;99.90
6538;DHT22;3302;52.508;13.454;2023-08-07T05:57:46;15.10;99.90
6538;DHT22;3302;52.508;13.454;2023-08-07T06:00:12;15.10;99.90
6538;DHT22;3302;52.508;13.454;2023-08-07T06:02:43;15.20;99.90
6538;DHT22;3302;52.508;13.454;2023-08-07T06:05:09;15.10;99.90
6538;DHT22;3302;52.508;13.454;2023-08-07T06:07:37;15.20;99.90
6538;DHT22;3302;52.508;13.454;2023-08-07T06:10:04;15.20;99.90
6538;DHT22;3302;52.508;13.454;2023-08-07T06:12:30;15.30;99.90
6538;DHT22;3302;52.508;13.454;2023-08-07T06:14:56;15.40;99.90
6538;DHT22;3302;52.508;13.454;2023-08-07T06:17:22;15.30;99.90
6538;DHT22;3302;52.508;13.454;2023-08-07T06:19:48;15.40;99.90
6538;DHT22;3302;52.508;13.454;2023-08-07T06:22:13;15.50;99.90
6538;DHT22;3302;52.508;13.454;2023-08-07T06:24:39;15.50;99.90
6538;DHT22;3302;52.508;13.454;2023-08-07T06:27:05;15.60;99.90
6538;DHT22;3302;52.508;13.454;2023-08-07T06:29:31;15.70;99.90
6538;DHT22;3302;52.508;13.454;2023-08-07T06:31:57;15.70;99.90
6538;DHT22;3302;52.508;13.454;2023-08-07T06:34:23;15.70;99.90
6538;DHT22;3302;52.508;13.454;2023-08-07T06:36:49;15.90;99.90
6538;DHT22;3302;52.508;13.454;2023-08-07T06:39:15;15.90;99.90
6538;DHT22;3302;52.508;13.454;2023-08-07T06:41:41;16.00;99.90
6538;DHT22;3302;52.508;13.454;2023-08-07T06:44:07;15.90;99.90
6538;DHT22;3302;52.508;13.454;2023-08-07T06:46:32;16.00;99.90
6538;DHT22;3302;52.508;13.454;2023-08-07T06:48:58;16.00;99.90
6538;DHT22;3302;52.508;13.454;2023-08-07T06:51:24;16.00;99.90
6538;DHT22;3302;52.508;13.454;2023-08-07T06:53:50;16.20;99.90
6538;DHT22;3302;52.508;13.454;2023-08-07T06:56:16;16.10;99.90
6538;DHT22;3302;52.508;13.454;2023-08-07T06:58:41;16.20;99.90
6538;DHT22;3302;52.508;13.454;2023-08-07T07:01:07;16.10;99.90
6538;DHT22;3302;52.508;13.454;2023-08-07T07:03:33;16.20;99.90
6538;DHT22;3302;52.508;13.454;2023-08-07T07:05:59;16.20;99.90
6538;DHT22;3302;52.508;13.454;2023-08-07T07:08:25;16.30;99.90
6538;DHT22;3302;52.508;13.454;2023-08-07T07:10:50;16.30;99.90
6538;DHT22;3302;52.508;13.454;2023-08-07T07:13:16;16.40;99.90
6538;DHT22;3302;52.508;13.454;2023-08-07T07:15:42;16.40;99.90
6538;DHT22;3302;52.508;13.454;2023-08-07T07:18:08;16.40;99.90
6538;DHT22;3302;52.508;13.454;2023-08-07T07:20:34;16.60;99.90
6538;DHT22;3302;52.508;13.454;2023-08-07T07:22:59;16.60;99.90
6538;DHT22;3302;52.508;13.454;2023-08-07T07:25:25;16.70;99.90
6538;DHT22;3302;52.508;13.454;2023-08-07T07:27:51;16.80;99.90
6538;DHT22;3302;52.508;13.454;2023-08-07T07:30:17;16.80;99.90
6538;DHT22;3302;52.508;13.454;2023-08-07T07:32:43;17.10;99.90
6538;DHT22;3302;52.508;13.454;2023-08-07T07:35:09;17.10;99.90
6538;DHT22;3302;52.508;13.454;2023-08-07T07:37:34;16.90;99.90
6538;DHT22;3302;52.508;13.454;2023-08-07T07:40:00;17.00;99.90
6538;DHT22;3302;52.508;13.454;2023-08-07T07:42:26;17.00;99.90
6538;DHT22;3302;52.508;13.454;2023-08-07T07:44:52;17.10;99.90
6538;DHT22;3302;52.508;13.454;2023-08-07T07:47:18;17.10;99.90
6538;DHT22;3302;52.508;13.454;2023-08-07T07:49:46;17.00;99.90
6538;DHT22;3302;52.508;13.454;2023-08-07T07:52:15;17.00;99.90
6538;DHT22;3302;52.508;13.454;2023-08-07T07:54:41;17.10;99.90
6538;DHT22;3302;52.508;13.454;2023-08-07T07:57:06;17.20;99.90
6538;DHT22;3302;52.508;13.454;2023-08-07T07:59:32;17.10;99.90
6538;DHT22;3302;52.508;13.454;2023-08-07T08:01:58;17.10;99.90
6538;DHT22;3302;52.508;13.454;2023-08-07T08:04:24;17.20;99.90
6538;DHT22;3302;52.508;13.454;2023-08-07T08:06:50;17.30;99.90
6538;DHT22;3302;52.508;13.454;2023-08-07T08:09:15;17.40;99.90
6538;DHT22;3302;52.508;13.454;2023-08-07T08:11:41;17.40;99.90
6538;DHT22;3302;52.508;13.454;2023-08-07T08:14:07;17.40;99.90
6538;DHT22;3302;52.508;13.454;2023-08-07T08:16:33;17.40;99.90
6538;DHT22;3302;52.508;13.454;2023-08-07T08:18:59;17.30;99.90
6538;DHT22;3302;52.508;13.454;2023-08-07T08:21:25;17.30;99.90
6538;DHT22;3302;52.508;13.454;2023-08-07T08:23:51;17.40;99.90
6538;DHT22;3302;52.508;13.454;2023-08-07T08:26:17;17.40;99.90
6538;DHT22;3302;52.508;13.454;2023-08-07T08:28:42;17.20;99.90
6538;DHT22;3302;52.508;13.454;2023-08-07T08:31:08;17.40;99.90
6538;DHT22;3302;52.508;13.454;2023-08-07T08:33:34;17.40;99.90
6538;DHT22;3302;52.508;13.454;2023-08-07T08:36:00;17.40;99.90
6538;DHT22;3302;52.508;13.454;2023-08-07T08:38:25;17.40;99.90
6538;DHT22;3302;52.508;13.454;2023-08-07T08:41:00;17.30;99.90
6538;DHT22;3302;52.508;13.454;2023-08-07T08:43:28;17.30;99.90
6538;DHT22;3302;52.508;13.454;2023-08-07T08:45:55;17.30;99.90
6538;DHT22;3302;52.508;13.454;2023-08-07T08:48:22;17.40;99.90
6538;DHT22;3302;52.508;13.454;2023-08-07T08:50:50;17.30;99.90
6538;DHT22;3302;52.508;13.454;2023-08-07T08:53:16;17.30;99.90
6538;DHT22;3302;52.508;13.454;2023-08-07T08:55:42;17.40;99.90
6538;DHT22;3302;52.508;13.454;2023-08-07T08:58:13;17.50;99.90
6538;DHT22;3302;52.508;13.454;2023-08-07T09:00:41;17.60;99.90
6538;DHT22;3302;52.508;13.454;2023-08-07T09:03:08;17.70;99.90
6538;DHT22;3302;52.508;13.454;2023-08-07T09:05:35;17.90;99.90
6538;DHT22;3302;52.508;13.454;2023-08-07T09:08:02;18.00;99.90
6538;DHT22;3302;52.508;13.454;2023-08-07T09:10:29;18.00;99.90
6538;DHT22;3302;52.508;13.454;2023-08-07T09:13:03;18.00;99.90
6538;DHT22;3302;52.508;13.454;2023-08-07T09:15:32;18.10;99.90
6538;DHT22;3302;52.508;13.454;2023-08-07T09:17:59;18.10;99.90
6538;DHT22;3302;52.508;13.454;2023-08-07T09:20:25;18.20;99.90
6538;DHT22;3302;52.508;13.454;2023-08-07T09:22:51;18.30;99.90
6538;DHT22;3302;52.508;13.454;2023-08-07T09:25:30;18.20;99.90
6538;DHT22;3302;52.508;13.454;2023-08-07T09:27:57;17.90;99.90
6538;DHT22;3302;52.508;13.454;2023-08-07T09:30:28;17.90;99.90
6538;DHT22;3302;52.508;13.454;2023-08-07T09:32:56;18.00;99.90
6538;DHT22;3302;52.508;13.454;2023-08-07T09:35:22;18.00;99.90
6538;DHT22;3302;52.508;13.454;2023-08-07T09:37:49;18.10;99.90
6538;DHT22;3302;52.508;13.454;2023-08-07T09:40:15;18.20;99.90
6538;DHT22;3302;52.508;13.454;2023-08-07T09:42:41;18.00;99.90
6538;DHT22;3302;52.508;13.454;2023-08-07T09:45:27;18.10;99.90
6538;DHT22;3302;52.508;13.454;2023-08-07T09:48:11;18.10;99.90
6538;DHT22;3302;52.508;13.454;2023-08-07T09:50:37;18.20;99.90
6538;DHT22;3302;52.508;13.454;2023-08-07T09:53:03;18.20;99.90
6538;DHT22;3302;52.508;13.454;2023-08-07T09:55:29;18.20;99.90
6538;DHT22;3302;52.508;13.454;2023-08-07T09:57:55;18.30;99.90
6538;DHT22;3302;52.508;13.454;2023-08-07T10:00:21;18.40;99.90
6538;DHT22;3302;52.508;13.454;2023-08-07T10:02:50;18.40;99.90
6538;DHT22;3302;52.508;13.454;2023-08-07T10:05:17;18.20;99.90
6538;DHT22;3302;52.508;13.454;2023-08-07T10:07:43;18.20;99.90
6538;DHT22;3302;52.508;13.454;2023-08-07T10:10:09;18.20;99.90
6538;DHT22;3302;52.508;13.454;2023-08-07T10:12:38;18.20;99.90
6538;DHT22;3302;52.508;13.454;2023-08-07T10:15:05;18.30;99.90
6538;DHT22;3302;52.508;13.454;2023-08-07T10:17:32;18.30;99.60
6538;DHT22;3302;52.508;13.454;2023-08-07T10:19:58;18.40;99.60
6538;DHT22;3302;52.508;13.454;2023-08-07T10:22:25;18.40;98.30
6538;DHT22;3302;52.508;13.454;2023-08-07T10:24:53;18.50;97.90
6538;DHT22;3302;52.508;13.454;2023-08-07T10:27:21;18.40;98.00
6538;DHT22;3302;52.508;13.454;2023-08-07T10:29:48;18.40;98.00
6538;DHT22;3302;52.508;13.454;2023-08-07T10:32:20;18.40;98.00
6538;DHT22;3302;52.508;13.454;2023-08-07T10:34:52;18.60;98.30
6538;DHT22;3302;52.508;13.454;2023-08-07T10:37:41;18.60;98.00
6538;DHT22;3302;52.508;13.454;2023-08-07T10:40:08;18.80;97.70
6538;DHT22;3302;52.508;13.454;2023-08-07T10:42:54;18.80;97.10
6538;DHT22;3302;52.508;13.454;2023-08-07T10:45:22;18.70;97.00
6538;DHT22;3302;52.508;13.454;2023-08-07T10:50:31;18.70;97.60
6538;DHT22;3302;52.508;13.454;2023-08-07T10:53:00;18.90;97.20
6538;DHT22;3302;52.508;13.454;2023-08-07T10:55:26;18.90;96.60
6538;DHT22;3302;52.508;13.454;2023-08-07T10:57:53;18.80;97.00
6538;DHT22;3302;52.508;13.454;2023-08-07T11:00:25;18.80;97.00
6538;DHT22;3302;52.508;13.454;2023-08-07T11:02:52;18.70;97.00
6538;DHT22;3302;52.508;13.454;2023-08-07T11:05:18;18.70;96.80
6538;DHT22;3302;52.508;13.454;2023-08-07T11:07:45;18.80;96.60
6538;DHT22;3302;52.508;13.454;2023-08-07T11:10:14;18.70;96.30
6538;DHT22;3302;52.508;13.454;2023-08-07T11:12:44;18.60;96.50
6538;DHT22;3302;52.508;13.454;2023-08-07T11:15:12;18.10;98.70
6538;DHT22;3302;52.508;13.454;2023-08-07T11:17:39;17.90;99.90
6538;DHT22;3302;52.508;13.454;2023-08-07T11:20:07;17.00;99.90
6538;DHT22;3302;52.508;13.454;2023-08-07T11:22:33;15.90;99.90
6538;DHT22;3302;52.508;13.454;2023-08-07T11:24:59;16.10;99.90
6538;DHT22;3302;52.508;13.454;2023-08-07T11:27:25;16.10;99.90
6538;DHT22;3302;52.508;13.454;2023-08-07T11:29:50;16.00;99.90
6538;DHT22;3302;52.508;13.454;2023-08-07T11:32:18;16.10;99.90
6538;DHT22;3302;52.508;13.454;2023-08-07T11:34:49;15.90;99.90
6538;DHT22;3302;52.508;13.454;2023-08-07T11:37:16;16.10;99.90
6538;DHT22;3302;52.508;13.454;2023-08-07T11:39:44;16.40;99.90
6538;DHT22;3302;52.508;13.454;2023-08-07T11:42:10;16.60;99.90
6538;DHT22;3302;52.508;13.454;2023-08-07T11:44:35;16.80;99.90
6538;DHT22;3302;52.508;13.454;2023-08-07T11:47:02;16.90;99.90
6538;DHT22;3302;52.508;13.454;2023-08-07T11:49:28;17.00;99.90
6538;DHT22;3302;52.508;13.454;2023-08-07T11:51:54;17.10;99.90
6538;DHT22;3302;52.508;13.454;2023-08-07T11:54:21;17.30;99.90
6538;DHT22;3302;52.508;13.454;2023-08-07T11:56:48;17.40;99.90
6538;DHT22;3302;52.508;13.454;2023-08-07T11:59:16;17.50;99.90
6538;DHT22;3302;52.508;13.454;2023-08-07T12:01:42;17.60;99.90
6538;DHT22;3302;52.508;13.454;2023-08-07T12:04:09;17.70;99.90
6538;DHT22;3302;52.508;13.454;2023-08-07T12:06:36;17.80;99.90
6538;DHT22;3302;52.508;13.454;2023-08-07T12:09:05;17.90;99.90
6538;DHT22;3302;52.508;13.454;2023-08-07T12:11:37;18.00;99.90
6538;DHT22;3302;52.508;13.454;2023-08-07T12:14:04;18.10;99.90
6538;DHT22;3302;52.508;13.454;2023-08-07T12:16:36;18.20;99.90
6538;DHT22;3302;52.508;13.454;2023-08-07T12:19:02;18.30;99.90
6538;DHT22;3302;52.508;13.454;2023-08-07T12:21:29;18.50;99.90
6538;DHT22;3302;52.508;13.454;2023-08-07T12:23:59;18.50;99.90
6538;DHT22;3302;52.508;13.454;2023-08-07T12:26:25;18.40;99.90
6538;DHT22;3302;52.508;13.454;2023-08-07T12:28:51;18.40;99.90
6538;DHT22;3302;52.508;13.454;2023-08-07T12:31:18;18.50;99.90
6538;DHT22;3302;52.508;13.454;2023-08-07T12:33:44;18.50;99.90
6538;DHT22;3302;52.508;13.454;2023-08-07T12:36:09;18.60;99.90
6538;DHT22;3302;52.508;13.454;2023-08-07T12:38:36;18.70;99.90
6538;DHT22;3302;52.508;13.454;2023-08-07T12:41:02;18.70;99.90
6538;DHT22;3302;52.508;13.454;2023-08-07T12:43:29;18.60;99.90
6538;DHT22;3302;52.508;13.454;2023-08-07T12:45:54;18.80;99.90
6538;DHT22;3302;52.508;13.454;2023-08-07T12:48:20;18.60;99.90
6538;DHT22;3302;52.508;13.454;2023-08-07T12:50:46;18.70;99.90
6538;DHT22;3302;52.508;13.454;2023-08-07T12:53:12;18.60;99.90
6538;DHT22;3302;52.508;13.454;2023-08-07T12:55:38;18.60;99.90
6538;DHT22;3302;52.508;13.454;2023-08-07T12:58:04;18.60;99.90
6538;DHT22;3302;52.508;13.454;2023-08-07T13:00:29;18.60;99.70
6538;DHT22;3302;52.508;13.454;2023-08-07T13:02:56;18.40;99.10
6538;DHT22;3302;52.508;13.454;2023-08-07T13:05:22;18.40;99.00
6538;DHT22;3302;52.508;13.454;2023-08-07T13:07:49;18.50;98.60
6538;DHT22;3302;52.508;13.454;2023-08-07T13:10:16;18.50;97.90
6538;DHT22;3302;52.508;13.454;2023-08-07T13:12:44;18.60;96.60
6538;DHT22;3302;52.508;13.454;2023-08-07T13:15:13;18.70;95.40
6538;DHT22;3302;52.508;13.454;2023-08-07T13:17:39;18.80;94.70
6538;DHT22;3302;52.508;13.454;2023-08-07T13:20:06;18.90;94.30
6538;DHT22;3302;52.508;13.454;2023-08-07T13:22:36;19.10;94.40
6538;DHT22;3302;52.508;13.454;2023-08-07T13:25:02;19.20;93.80
6538;DHT22;3302;52.508;13.454;2023-08-07T13:27:32;19.20;94.30
6538;DHT22;3302;52.508;13.454;2023-08-07T13:29:58;19.30;93.30
6538;DHT22;3302;52.508;13.454;2023-08-07T13:32:25;19.40;89.80
6538;DHT22;3302;52.508;13.454;2023-08-07T13:34:51;19.50;88.10
6538;DHT22;3302;52.508;13.454;2023-08-07T13:37:17;19.60;85.10
6538;DHT22;3302;52.508;13.454;2023-08-07T13:39:43;19.50;83.90
6538;DHT22;3302;52.508;13.454;2023-08-07T13:42:09;19.50;82.60
6538;DHT22;3302;52.508;13.454;2023-08-07T13:44:37;19.60;82.30
6538;DHT22;3302;52.508;13.454;2023-08-07T13:47:04;19.50;82.20
6538;DHT22;3302;52.508;13.454;2023-08-07T13:49:30;19.50;82.20
6538;DHT22;3302;52.508;13.454;2023-08-07T13:51:56;19.50;82.00
6538;DHT22;3302;52.508;13.454;2023-08-07T13:54:22;19.60;81.50
6538;DHT22;3302;52.508;13.454;2023-08-07T13:56:48;19.60;79.90
6538;DHT22;3302;52.508;13.454;2023-08-07T13:59:14;19.70;79.50
6538;DHT22;3302;52.508;13.454;2023-08-07T14:01:40;19.60;79.50
6538;DHT22;3302;52.508;13.454;2023-08-07T14:04:05;19.70;80.20
6538;DHT22;3302;52.508;13.454;2023-08-07T14:06:31;19.70;80.30
6538;DHT22;3302;52.508;13.454;2023-08-07T14:08:57;19.70;80.30
6538;DHT22;3302;52.508;13.454;2023-08-07T14:11:23;19.70;80.80
6538;DHT22;3302;52.508;13.454;2023-08-07T14:13:53;19.70;80.60
6538;DHT22;3302;52.508;13.454;2023-08-07T14:16:19;19.70;79.80
6538;DHT22;3302;52.508;13.454;2023-08-07T14:18:45;19.60;80.30
6538;DHT22;3302;52.508;13.454;2023-08-07T14:21:10;19.50;80.70
6538;DHT22;3302;52.508;13.454;2023-08-07T14:23:36;19.50;82.10
6538;DHT22;3302;52.508;13.454;2023-08-07T14:26:02;19.50;81.40
6538;DHT22;3302;52.508;13.454;2023-08-07T14:28:29;19.40;81.60
6538;DHT22;3302;52.508;13.454;2023-08-07T14:30:58;19.40;81.80
6538;DHT22;3302;52.508;13.454;2023-08-07T14:33:25;19.40;82.90
6538;DHT22;3302;52.508;13.454;2023-08-07T14:35:51;19.40;82.20
6538;DHT22;3302;52.508;13.454;2023-08-07T14:38:17;19.40;80.20
6538;DHT22;3302;52.508;13.454;2023-08-07T14:40:43;19.30;78.70
6538;DHT22;3302;52.508;13.454;2023-08-07T14:43:09;19.40;78.40
6538;DHT22;3302;52.508;13.454;2023-08-07T14:45:36;19.40;79.00
6538;DHT22;3302;52.508;13.454;2023-08-07T14:48:03;19.40;78.70
6538;DHT22;3302;52.508;13.454;2023-08-07T14:50:29;19.30;78.40
6538;DHT22;3302;52.508;13.454;2023-08-07T14:52:54;19.40;78.00
6538;DHT22;3302;52.508;13.454;2023-08-07T14:55:20;19.50;78.10
6538;DHT22;3302;52.508;13.454;2023-08-07T14:57:46;19.60;78.20
6538;DHT22;3302;52.508;13.454;2023-08-07T15:00:12;19.50;78.40
6538;DHT22;3302;52.508;13.454;2023-08-07T15:02:38;19.20;78.10
6538;DHT22;3302;52.508;13.454;2023-08-07T15:05:05;19.30;79.00
6538;DHT22;3302;52.508;13.454;2023-08-07T15:07:31;19.20;79.00
6538;DHT22;3302;52.508;13.454;2023-08-07T15:09:57;19.20;78.70
6538;DHT22;3302;52.508;13.454;2023-08-07T15:12:23;19.10;79.00
6538;DHT22;3302;52.508;13.454;2023-08-07T15:14:49;19.10;78.50
6538;DHT22;3302;52.508;13.454;2023-08-07T15:17:15;19.10;77.30
6538;DHT22;3302;52.508;13.454;2023-08-07T15:19:41;19.20;78.00
6538;DHT22;3302;52.508;13.454;2023-08-07T15:22:07;19.20;77.90
6538;DHT22;3302;52.508;13.454;2023-08-07T15:24:33;19.20;78.00
6538;DHT22;3302;52.508;13.454;2023-08-07T15:26:59;19.20;78.10
6538;DHT22;3302;52.508;13.454;2023-08-07T15:29:24;19.30;78.90
6538;DHT22;3302;52.508;13.454;2023-08-07T15:31:50;19.20;78.10
6538;DHT22;3302;52.508;13.454;2023-08-07T15:34:16;19.10;77.60
6538;DHT22;3302;52.508;13.454;2023-08-07T15:36:42;19.10;77.30
6538;DHT22;3302;52.508;13.454;2023-08-07T15:39:08;19.10;77.80
6538;DHT22;3302;52.508;13.454;2023-08-07T15:41:34;19.20;78.50
6538;DHT22;3302;52.508;13.454;2023-08-07T15:44:02;19.30;78.10
6538;DHT22;3302;52.508;13.454;2023-08-07T15:46:28;19.70;77.90
6538;DHT22;3302;52.508;13.454;2023-08-07T15:48:55;19.90;76.80